createdAt,value
2019-05-19T00:00:32.820Z,11.10
2019-05-19T00:03:05.373Z,11.10
2019-05-19T00:05:35.819Z,11.00
2019-05-19T00:08:07.221Z,11.00
2019-05-19T00:10:40.646Z,11.10
2019-05-19T00:13:08.410Z,11.00
2019-05-19T00:15:37.860Z,11.10
2019-05-19T00:18:08.597Z,11.10
2019-05-19T00:20:38.314Z,11.10
2019-05-19T00:23:05.780Z,10.50
2019-05-19T00:25:34.825Z,11.00
2019-05-19T00:28:04.279Z,10.80
2019-05-19T00:30:33.490Z,12.10
2019-05-19T00:33:05.460Z,10.80
2019-05-19T00:35:33.188Z,10.80
2019-05-19T00:38:06.711Z,12.30
2019-05-19T00:40:36.390Z,11.00
2019-05-19T00:43:05.820Z,9.70
2019-05-19T00:45:36.393Z,10.70
2019-05-19T00:48:04.228Z,10.60
2019-05-19T00:50:31.818Z,10.80
2019-05-19T00:53:01.282Z,10.40
2019-05-19T00:55:28.759Z,10.50
2019-05-19T00:57:58.910Z,10.50
2019-05-19T01:03:18.940Z,11.00
2019-05-19T01:05:47.774Z,10.60
2019-05-19T01:08:14.628Z,10.40
2019-05-19T01:10:41.727Z,10.50
2019-05-19T01:13:12.560Z,10.40
2019-05-19T01:15:39.843Z,10.40
2019-05-19T01:18:06.924Z,10.30
2019-05-19T01:20:34.487Z,10.20
2019-05-19T01:23:01.650Z,10.40
2019-05-19T01:25:35.251Z,10.40
2019-05-19T01:28:03.199Z,10.30
2019-05-19T01:30:34.042Z,10.30
2019-05-19T01:33:03.364Z,10.50
2019-05-19T01:35:32.984Z,10.50
2019-05-19T01:38:02.685Z,10.50
2019-05-19T01:40:35.010Z,10.50
2019-05-19T01:43:07.505Z,10.50
2019-05-19T01:45:38.027Z,10.40
2019-05-19T01:48:10.810Z,9.80
2019-05-19T01:50:39.913Z,11.20
2019-05-19T01:53:07.152Z,10.10
2019-05-19T01:55:36.379Z,10.20
2019-05-19T01:58:06.742Z,10.70
2019-05-19T02:00:39.868Z,10.10
2019-05-19T02:03:19.191Z,10.10
2019-05-19T02:05:42.753Z,10.20
2019-05-19T02:08:16.554Z,10.10
2019-05-19T02:10:45.299Z,10.10
2019-05-19T02:13:12.784Z,10.10
2019-05-19T02:15:40.039Z,10.10
2019-05-19T02:18:11.741Z,10.10
2019-05-19T02:20:42.792Z,10.20
2019-05-19T02:23:12.571Z,10.50
2019-05-19T02:25:39.915Z,10.40
2019-05-19T02:28:08.930Z,10.50
2019-05-19T02:30:37.868Z,10.40
2019-05-19T02:33:06.186Z,10.50
2019-05-19T02:35:33.039Z,10.90
2019-05-19T02:38:02.864Z,10.50
2019-05-19T02:40:32.366Z,10.50
2019-05-19T02:43:03.747Z,10.60
2019-05-19T02:45:32.824Z,10.50
2019-05-19T02:48:01.627Z,10.50
2019-05-19T02:50:29.159Z,11.40
2019-05-19T02:52:57.651Z,10.50
2019-05-19T02:55:25.580Z,10.60
2019-05-19T02:57:53.001Z,9.90
2019-05-19T03:00:23.076Z,10.70
2019-05-19T03:02:50.583Z,10.70
2019-05-19T03:05:18.661Z,11.30
2019-05-19T03:07:45.675Z,10.70
2019-05-19T03:10:13.010Z,10.70
2019-05-19T03:12:40.256Z,11.00
2019-05-19T03:15:09.399Z,9.50
2019-05-19T03:17:36.307Z,11.50
2019-05-19T03:20:04.551Z,10.90
2019-05-19T03:22:31.450Z,10.90
2019-05-19T03:24:58.374Z,10.90
2019-05-19T03:27:26.541Z,11.30
2019-05-19T03:29:57.749Z,11.50
2019-05-19T03:32:35.927Z,11.10
2019-05-19T03:35:02.870Z,12.30
2019-05-19T03:37:29.701Z,11.20
2019-05-19T03:39:56.621Z,11.70
2019-05-19T03:42:24.543Z,11.20
2019-05-19T03:44:51.967Z,11.40
2019-05-19T03:47:18.987Z,11.90
2019-05-19T03:49:45.916Z,11.40
2019-05-19T03:52:14.038Z,10.10
2019-05-19T03:54:40.968Z,13.40
2019-05-19T03:57:07.937Z,11.60
2019-05-19T03:59:37.340Z,12.50
2019-05-19T04:02:05.412Z,11.70
2019-05-19T04:04:32.435Z,11.80
2019-05-19T04:06:59.379Z,11.80
2019-05-19T04:09:26.490Z,11.80
2019-05-19T04:11:53.500Z,11.90
2019-05-19T04:14:20.584Z,11.90
2019-05-19T04:16:51.057Z,11.90
2019-05-19T04:19:18.961Z,11.30
2019-05-19T04:21:49.155Z,11.90
2019-05-19T04:24:15.229Z,12.00
2019-05-19T04:26:45.281Z,13.50
2019-05-19T04:29:12.516Z,12.20
2019-05-19T04:31:40.142Z,11.70
2019-05-19T04:34:07.414Z,13.00
2019-05-19T04:36:34.628Z,13.00
2019-05-19T04:39:01.735Z,12.20
2019-05-19T04:41:30.125Z,12.40
2019-05-19T04:43:57.665Z,11.70
2019-05-19T04:46:25.238Z,12.40
2019-05-19T04:48:52.528Z,12.50
2019-05-19T04:51:38.773Z,13.10
2019-05-19T04:54:06.070Z,12.50
2019-05-19T04:56:34.187Z,12.60
2019-05-19T04:59:01.300Z,12.60
2019-05-19T05:01:28.418Z,12.60
2019-05-19T05:03:55.848Z,12.70
2019-05-19T05:06:26.020Z,12.60
2019-05-19T05:08:53.084Z,12.70
2019-05-19T05:11:19.981Z,12.70
2019-05-19T05:13:47.015Z,12.70
2019-05-19T05:16:16.522Z,13.60
2019-05-19T05:18:47.919Z,13.10
2019-05-19T05:21:14.801Z,13.10
2019-05-19T05:24:09.442Z,13.30
2019-05-19T05:26:43.578Z,13.30
2019-05-19T05:29:10.462Z,14.10
2019-05-19T05:31:39.046Z,13.60
2019-05-19T05:34:06.413Z,13.50
2019-05-19T05:36:35.592Z,13.70
2019-05-19T05:39:19.481Z,13.80
2019-05-19T05:41:46.715Z,13.90
2019-05-19T05:44:13.929Z,14.10
2019-05-19T05:46:44.753Z,14.20
2019-05-19T05:49:13.550Z,14.40
2019-05-19T05:51:44.734Z,14.50
2019-05-19T05:54:14.030Z,14.40
2019-05-19T05:56:43.963Z,14.80
2019-05-19T05:59:10.920Z,14.30
2019-05-19T06:01:38.211Z,14.50
2019-05-19T06:04:05.303Z,14.50
2019-05-19T06:06:34.544Z,14.50
2019-05-19T06:09:11.883Z,14.70
2019-05-19T06:11:54.371Z,14.60
2019-05-19T06:14:22.771Z,14.80
2019-05-19T06:16:49.606Z,14.80
2019-05-19T06:19:20.477Z,15.00
2019-05-19T06:21:51.428Z,15.00
2019-05-19T06:24:23.339Z,15.00
2019-05-19T06:26:56.479Z,15.00
2019-05-19T06:29:28.043Z,15.00
2019-05-19T06:32:03.664Z,15.10
2019-05-19T06:34:35.386Z,15.00
2019-05-19T06:40:45.991Z,15.00
2019-05-19T06:43:20.850Z,15.00
2019-05-19T06:49:34.961Z,15.50
2019-05-19T06:52:10.530Z,15.40
2019-05-19T06:55:00.607Z,15.60
2019-05-19T06:57:52.591Z,15.70
2019-05-19T07:00:20.985Z,15.30
2019-05-19T07:02:49.286Z,15.80
2019-05-19T07:05:18.671Z,15.80
2019-05-19T07:10:39.427Z,15.70
2019-05-19T07:13:20.538Z,15.70
2019-05-19T07:15:56.416Z,15.60
2019-05-19T07:18:33.732Z,15.60
2019-05-19T07:21:43.858Z,15.70
2019-05-19T07:24:11.473Z,15.90
2019-05-19T07:26:41.074Z,16.00
2019-05-19T07:29:14.177Z,16.00
2019-05-19T07:31:42.109Z,16.20
2019-05-19T07:34:11.140Z,16.20
2019-05-19T07:36:50.035Z,15.30
2019-05-19T07:39:20.088Z,16.40
2019-05-19T07:41:49.959Z,16.50
2019-05-19T07:44:20.139Z,17.20
2019-05-19T07:46:50.836Z,16.60
2019-05-19T07:49:23.039Z,15.70
2019-05-19T07:51:51.450Z,17.20
2019-05-19T07:54:22.471Z,17.00
2019-05-19T07:56:54.850Z,17.20
2019-05-19T07:59:43.183Z,16.90
2019-05-19T08:02:11.225Z,17.50
2019-05-19T08:04:38.775Z,17.50
2019-05-19T08:07:08.984Z,16.20
2019-05-19T08:09:40.378Z,17.50
2019-05-19T08:12:09.776Z,17.30
2019-05-19T08:14:40.935Z,17.80
2019-05-19T08:17:12.563Z,18.10
2019-05-19T08:19:46.878Z,18.20
2019-05-19T08:22:14.233Z,19.00
2019-05-19T08:24:43.428Z,20.50
2019-05-19T08:27:10.304Z,22.00
2019-05-19T08:29:37.337Z,23.50
2019-05-19T08:32:07.337Z,23.90
2019-05-19T08:34:34.671Z,23.60
2019-05-19T08:37:17.942Z,24.50
2019-05-19T08:40:17.926Z,25.00
2019-05-19T08:42:48.973Z,25.60
2019-05-19T08:45:18.196Z,26.10
2019-05-19T08:47:50.144Z,26.40
2019-05-19T08:50:19.117Z,27.20
2019-05-19T08:52:49.514Z,28.80
2019-05-19T08:55:21.910Z,28.00
2019-05-19T08:57:50.985Z,28.50
2019-05-19T09:03:43.177Z,29.50
2019-05-19T09:06:20.682Z,29.40
2019-05-19T09:09:17.858Z,30.50
2019-05-19T09:11:54.591Z,32.00
2019-05-19T09:14:22.116Z,32.10
2019-05-19T09:16:56.108Z,31.50
2019-05-19T09:19:24.275Z,32.20
2019-05-19T09:21:55.545Z,30.70
2019-05-19T09:24:30.584Z,31.10
2019-05-19T09:26:56.289Z,30.80
2019-05-19T09:29:24.607Z,30.30
2019-05-19T09:32:08.452Z,30.10
2019-05-19T09:34:51.286Z,31.30
2019-05-19T09:37:29.566Z,30.30
2019-05-19T09:39:58.375Z,29.90
2019-05-19T09:42:31.565Z,29.20
2019-05-19T09:45:02.587Z,29.20
2019-05-19T09:47:32.525Z,28.70
2019-05-19T09:50:00.411Z,31.40
2019-05-19T09:52:35.825Z,29.60
2019-05-19T09:55:34.683Z,30.30
2019-05-19T09:59:14.800Z,28.90
2019-05-19T10:06:10.291Z,28.40
2019-05-19T10:35:56.758Z,30.80
2019-05-19T10:42:29.643Z,29.90
2019-05-19T10:45:00.691Z,30.30
2019-05-19T10:47:57.538Z,30.20
2019-05-19T10:50:26.459Z,30.20
2019-05-19T10:53:38.865Z,32.40
2019-05-19T10:56:12.778Z,31.70
2019-05-19T10:58:51.099Z,31.50
2019-05-19T11:01:42.857Z,30.80
2019-05-19T11:08:28.225Z,30.70
2019-05-19T11:11:05.361Z,31.60
2019-05-19T11:13:48.863Z,31.60
2019-05-19T11:16:43.598Z,32.60
2019-05-19T11:19:49.472Z,32.50
2019-05-19T11:22:18.259Z,31.70
2019-05-19T11:24:47.562Z,31.60
2019-05-19T11:27:17.054Z,31.70
2019-05-19T11:29:44.858Z,32.30
2019-05-19T11:32:12.783Z,32.00
2019-05-19T11:34:44.303Z,32.10
2019-05-19T11:37:17.476Z,31.90
2019-05-19T11:39:43.048Z,31.70
2019-05-19T11:42:56.516Z,31.70
2019-05-19T11:45:53.977Z,31.70
2019-05-19T11:48:52.974Z,31.20
2019-05-19T11:51:35.161Z,31.70
2019-05-19T11:54:05.012Z,33.00
2019-05-19T11:56:35.140Z,33.10
2019-05-19T11:59:05.039Z,33.50
2019-05-19T12:01:32.836Z,33.10
2019-05-19T12:04:11.719Z,32.70
2019-05-19T12:06:41.970Z,32.80
2019-05-19T12:09:11.205Z,34.10
2019-05-19T12:11:41.940Z,34.40
2019-05-19T12:14:12.711Z,31.50
2019-05-19T12:16:42.694Z,31.90
2019-05-19T12:19:12.161Z,31.60
2019-05-19T12:21:39.264Z,30.00
2019-05-19T12:24:08.173Z,29.60
2019-05-19T12:26:37.685Z,29.90
2019-05-19T12:29:04.802Z,31.00
2019-05-19T12:31:33.160Z,32.30
2019-05-19T12:34:04.989Z,31.50
2019-05-19T12:36:34.532Z,30.90
2019-05-19T12:39:16.988Z,32.00
2019-05-19T12:41:54.674Z,33.20
2019-05-19T12:44:45.033Z,34.00
2019-05-19T12:47:36.440Z,33.30
2019-05-19T12:50:09.496Z,32.90
2019-05-19T12:52:38.455Z,33.90
2019-05-19T12:55:11.076Z,34.80
2019-05-19T12:57:50.630Z,32.80
2019-05-19T13:00:19.492Z,32.50
2019-05-19T13:02:51.000Z,32.90
2019-05-19T13:05:22.353Z,33.10
2019-05-19T13:07:52.517Z,32.20
2019-05-19T13:10:24.454Z,32.10
2019-05-19T13:12:55.040Z,33.20
2019-05-19T13:15:25.324Z,33.80
2019-05-19T13:17:54.792Z,34.50
2019-05-19T13:20:22.599Z,34.90
2019-05-19T13:22:53.024Z,34.90
2019-05-19T13:25:26.116Z,35.20
2019-05-19T13:27:58.604Z,35.20
2019-05-19T13:30:28.691Z,35.20
2019-05-19T13:33:01.945Z,35.50
2019-05-19T13:35:33.854Z,35.40
2019-05-19T13:38:04.905Z,35.90
2019-05-19T13:40:34.548Z,36.40
2019-05-19T13:43:03.929Z,37.50
2019-05-19T13:45:34.458Z,35.70
2019-05-19T13:48:02.544Z,36.80
2019-05-19T13:50:31.628Z,36.50
2019-05-19T13:53:02.021Z,36.40
2019-05-19T13:59:15.879Z,35.80
2019-05-19T14:01:51.717Z,34.90
2019-05-19T14:04:31.965Z,34.50
2019-05-19T14:10:30.691Z,34.00
2019-05-19T14:13:04.589Z,34.70
2019-05-19T14:25:20.987Z,31.70
2019-05-19T14:28:52.948Z,30.40
2019-05-19T14:31:35.867Z,30.40
2019-05-19T14:34:41.816Z,30.00
2019-05-19T14:37:20.063Z,29.00
2019-05-19T14:40:00.700Z,28.10
2019-05-19T14:43:18.533Z,28.30
2019-05-19T14:46:36.900Z,28.10
2019-05-19T14:49:05.930Z,28.80
2019-05-19T14:51:49.500Z,28.40
2019-05-19T14:54:23.288Z,26.40
2019-05-19T14:57:05.483Z,26.20
2019-05-19T14:59:46.513Z,25.90
2019-05-19T15:02:59.450Z,25.80
2019-05-19T15:05:49.812Z,25.30
2019-05-19T15:15:40.383Z,25.10
2019-05-19T15:18:56.864Z,25.30
2019-05-19T15:21:32.072Z,26.70
2019-05-19T15:24:32.160Z,27.40
2019-05-19T15:27:29.119Z,27.40
2019-05-19T15:30:19.423Z,27.50
2019-05-19T15:36:18.715Z,28.30
2019-05-19T15:39:24.331Z,28.00
2019-05-19T15:42:40.821Z,27.80
2019-05-19T15:49:02.434Z,30.40
2019-05-19T15:56:46.487Z,31.10
2019-05-19T16:08:07.296Z,24.90
2019-05-19T16:11:19.542Z,25.00
2019-05-19T16:15:06.310Z,26.00
2019-05-19T16:25:45.084Z,27.50
2019-05-19T16:29:02.684Z,28.10
2019-05-19T16:32:06.797Z,28.10
2019-05-19T16:39:18.546Z,29.10
2019-05-19T16:53:46.268Z,25.10
2019-05-19T16:56:33.707Z,25.00
2019-05-19T16:59:28.102Z,24.40
2019-05-19T17:02:19.720Z,24.10
2019-05-19T17:05:16.415Z,23.80
2019-05-19T17:11:46.608Z,22.40
2019-05-19T17:15:06.254Z,22.70
2019-05-19T17:21:23.709Z,23.10
2019-05-19T17:34:19.836Z,24.50
2019-05-19T17:37:01.526Z,26.10
2019-05-19T17:39:34.379Z,25.80
2019-05-19T17:42:29.109Z,26.40
2019-05-19T17:45:04.710Z,25.70
2019-05-19T17:47:42.250Z,25.10
2019-05-19T17:53:52.575Z,25.10
2019-05-19T17:56:59.662Z,24.70
2019-05-19T17:59:53.713Z,24.90
2019-05-19T18:05:58.420Z,24.90
2019-05-19T18:11:38.583Z,24.40
2019-05-19T18:14:33.147Z,25.00
2019-05-19T18:17:36.304Z,24.20
2019-05-19T18:28:08.289Z,22.00
2019-05-19T18:31:45.204Z,21.90
2019-05-19T18:42:20.428Z,20.50
2019-05-19T18:45:22.074Z,20.30
2019-05-19T18:49:09.520Z,19.90
2019-05-19T18:52:45.263Z,19.50
2019-05-19T18:56:13.419Z,18.90
2019-05-19T19:03:16.750Z,18.20
2019-05-19T19:14:13.999Z,17.50
2019-05-19T19:20:16.336Z,17.20
2019-05-19T19:29:16.255Z,16.30
2019-05-19T19:36:02.687Z,16.60
2019-05-19T19:49:12.732Z,16.20
2019-05-19T19:51:43.157Z,16.20
2019-05-19T19:54:23.353Z,15.50
2019-05-19T19:56:55.880Z,16.00
2019-05-19T19:59:25.902Z,15.20
2019-05-19T20:01:56.256Z,15.60
2019-05-19T20:07:56.352Z,15.60
2019-05-19T20:10:28.219Z,15.50
2019-05-19T20:12:59.856Z,15.40
2019-05-19T20:15:27.755Z,15.70
2019-05-19T20:17:56.479Z,16.00
2019-05-19T20:20:24.298Z,15.00
2019-05-19T20:22:51.883Z,14.90
2019-05-19T20:25:20.404Z,14.80
2019-05-19T20:27:47.401Z,14.70
2019-05-19T20:30:33.693Z,14.60
2019-05-19T20:32:47.477Z,14.50
2019-05-19T20:35:14.921Z,14.50
2019-05-19T20:37:41.845Z,14.50
2019-05-19T20:40:21.019Z,15.00
2019-05-19T20:42:48.268Z,14.40
2019-05-19T20:45:15.313Z,14.50
2019-05-19T20:47:42.224Z,14.70
2019-05-19T20:50:11.577Z,14.50
2019-05-19T20:52:38.729Z,14.50
2019-05-19T20:55:07.952Z,14.40
2019-05-19T20:57:35.504Z,14.40
2019-05-19T21:00:03.300Z,13.50
2019-05-19T21:02:33.570Z,14.40
2019-05-19T21:05:00.624Z,14.50
2019-05-19T21:07:28.194Z,14.50
2019-05-19T21:09:56.344Z,14.60
2019-05-19T21:12:27.548Z,14.60
2019-05-19T21:14:57.925Z,14.60
2019-05-19T21:17:24.955Z,14.20
2019-05-19T21:22:41.082Z,14.60
2019-05-19T21:25:19.850Z,14.60
2019-05-19T21:27:47.570Z,14.60
2019-05-19T21:30:16.384Z,14.60
2019-05-19T21:32:46.400Z,15.60
2019-05-19T21:35:14.048Z,14.50
2019-05-19T21:38:02.511Z,14.50
2019-05-19T21:40:31.098Z,14.50
2019-05-19T21:42:58.143Z,14.50
2019-05-19T21:45:27.233Z,15.60
2019-05-19T21:47:54.516Z,14.60
2019-05-19T21:50:21.449Z,14.50
2019-05-19T21:53:08.024Z,14.60
2019-05-19T21:55:41.059Z,14.50
2019-05-19T21:58:09.605Z,14.60
2019-05-19T22:00:37.175Z,14.60
2019-05-19T22:03:04.451Z,14.60
2019-05-19T22:05:33.297Z,14.60
2019-05-19T22:08:19.743Z,14.70
2019-05-19T22:10:46.904Z,14.70
2019-05-19T22:13:26.772Z,14.70
2019-05-19T22:15:53.870Z,14.70
2019-05-19T22:18:20.862Z,14.70
2019-05-19T22:21:08.418Z,14.70
2019-05-19T22:23:35.359Z,14.70
2019-05-19T22:26:03.211Z,14.70
2019-05-19T22:28:30.465Z,14.70
2019-05-19T22:31:17.834Z,14.70
2019-05-19T22:34:04.078Z,14.70
2019-05-19T22:36:49.734Z,14.70
2019-05-19T22:39:18.266Z,14.60
2019-05-19T22:41:46.101Z,15.60
2019-05-19T22:44:14.738Z,14.10
2019-05-19T22:46:42.140Z,14.60
2019-05-19T22:49:09.347Z,15.60
2019-05-19T22:51:36.273Z,14.50
2019-05-19T22:54:03.262Z,14.70
2019-05-19T22:56:30.171Z,14.40
2019-05-19T22:58:57.158Z,16.10
2019-05-19T23:01:25.827Z,14.50
2019-05-19T23:03:53.405Z,14.50
2019-05-19T23:06:20.371Z,14.40
2019-05-19T23:08:49.943Z,14.40
2019-05-19T23:11:17.144Z,14.40
2019-05-19T23:13:46.451Z,14.30
2019-05-19T23:16:17.873Z,14.50
2019-05-19T23:18:46.319Z,15.30
2019-05-19T23:21:15.882Z,14.40
2019-05-19T23:23:43.426Z,15.80
2019-05-19T23:26:10.390Z,14.40
2019-05-19T23:28:37.513Z,14.40
2019-05-19T23:31:06.691Z,14.40
2019-05-19T23:33:33.544Z,14.40
2019-05-19T23:36:00.379Z,16.00
2019-05-19T23:38:29.718Z,14.40
2019-05-19T23:40:56.732Z,14.70
2019-05-19T23:43:25.893Z,15.10
2019-05-19T23:45:53.330Z,14.20
2019-05-19T23:48:20.451Z,14.90
2019-05-19T23:50:47.398Z,15.30
2019-05-19T23:53:14.552Z,14.10
2019-05-19T23:55:41.385Z,14.80
2019-05-19T23:58:10.832Z,14.00
